sensor_id;sensor_type;location;lat;lon;timestamp;pressure;altitude;pressure_sealevel;temperature;humidity
67803;BME280;54601;51.378;-1.342;2023-06-26T00:01:31;100306.97;;;27.06;30.44
67803;BME280;54601;51.378;-1.342;2023-06-26T00:03:56;100306.75;;;26.75;30.64
67803;BME280;54601;51.378;-1.342;2023-06-26T00:06:21;100316.55;;;27.30;30.12
67803;BME280;54601;51.378;-1.342;2023-06-26T00:08:46;100320.99;;;26.79;30.51
67803;BME280;54601;51.378;-1.342;2023-06-26T00:11:12;100320.64;;;26.96;30.50
67803;BME280;54601;51.378;-1.342;2023-06-26T00:13:37;100323.26;;;26.63;30.63
67803;BME280;54601;51.378;-1.342;2023-06-26T00:16:02;100321.79;;;26.69;30.84
67803;BME280;54601;51.378;-1.342;2023-06-26T00:18:28;100322.18;;;26.89;30.61
67803;BME280;54601;51.378;-1.342;2023-06-26T00:20:53;100329.08;;;26.68;30.58
67803;BME280;54601;51.378;-1.342;2023-06-26T00:23:18;100328.01;;;26.66;30.88
67803;BME280;54601;51.378;-1.342;2023-06-26T00:25:44;100329.71;;;26.79;31.06
67803;BME280;54601;51.378;-1.342;2023-06-26T00:28:09;100331.35;;;26.81;30.63
67803;BME280;54601;51.378;-1.342;2023-06-26T00:30:34;100329.19;;;26.48;31.00
67803;BME280;54601;51.378;-1.342;2023-06-26T00:32:59;100330.95;;;26.80;30.49
67803;BME280;54601;51.378;-1.342;2023-06-26T00:35:25;100331.06;;;26.54;31.02
67803;BME280;54601;51.378;-1.342;2023-06-26T00:37:50;100333.28;;;26.60;30.73
67803;BME280;54601;51.378;-1.342;2023-06-26T00:40:17;100335.83;;;26.78;30.61
67803;BME280;54601;51.378;-1.342;2023-06-26T00:42:40;100335.06;;;26.64;30.79
67803;BME280;54601;51.378;-1.342;2023-06-26T00:45:06;100338.09;;;26.53;30.89
67803;BME280;54601;51.378;-1.342;2023-06-26T00:47:31;100337.60;;;26.37;31.07
67803;BME280;54601;51.378;-1.342;2023-06-26T00:49:56;100337.93;;;26.53;30.74
67803;BME280;54601;51.378;-1.342;2023-06-26T00:52:22;100339.52;;;26.60;30.77
67803;BME280;54601;51.378;-1.342;2023-06-26T00:54:47;100337.98;;;26.37;31.08
67803;BME280;54601;51.378;-1.342;2023-06-26T00:57:12;100337.27;;;26.37;30.91
67803;BME280;54601;51.378;-1.342;2023-06-26T00:59:37;100338.87;;;26.42;31.12
67803;BME280;54601;51.378;-1.342;2023-06-26T01:02:03;100341.80;;;26.42;30.92
67803;BME280;54601;51.378;-1.342;2023-06-26T01:04:28;100343.31;;;26.43;30.87
67803;BME280;54601;51.378;-1.342;2023-06-26T01:06:54;100345.90;;;26.45;30.96
67803;BME280;54601;51.378;-1.342;2023-06-26T01:09:19;100348.90;;;26.57;30.72
67803;BME280;54601;51.378;-1.342;2023-06-26T01:11:44;100349.38;;;26.37;30.93
67803;BME280;54601;51.378;-1.342;2023-06-26T01:14:09;100351.18;;;26.47;30.70
67803;BME280;54601;51.378;-1.342;2023-06-26T01:16:35;100352.61;;;26.47;30.78
67803;BME280;54601;51.378;-1.342;2023-06-26T01:19:00;100350.92;;;26.21;31.18
67803;BME280;54601;51.378;-1.342;2023-06-26T01:21:26;100354.43;;;26.62;31.26
67803;BME280;54601;51.378;-1.342;2023-06-26T01:23:57;100354.29;;;26.37;30.92
67803;BME280;54601;51.378;-1.342;2023-06-26T01:26:17;100357.70;;;26.30;30.84
67803;BME280;54601;51.378;-1.342;2023-06-26T01:28:42;100356.66;;;26.40;30.72
67803;BME280;54601;51.378;-1.342;2023-06-26T01:31:07;100359.25;;;26.18;31.02
67803;BME280;54601;51.378;-1.342;2023-06-26T01:33:32;100355.33;;;26.31;30.78
67803;BME280;54601;51.378;-1.342;2023-06-26T01:35:57;100359.85;;;25.88;31.43
67803;BME280;54601;51.378;-1.342;2023-06-26T01:38:22;100360.11;;;25.92;31.29
67803;BME280;54601;51.378;-1.342;2023-06-26T01:40:47;100356.08;;;25.97;31.22
67803;BME280;54601;51.378;-1.342;2023-06-26T01:43:24;100355.46;;;26.55;30.87
67803;BME280;54601;51.378;-1.342;2023-06-26T01:45:39;100355.89;;;26.18;30.99
67803;BME280;54601;51.378;-1.342;2023-06-26T01:48:06;100353.06;;;26.22;30.92
67803;BME280;54601;51.378;-1.342;2023-06-26T01:50:30;100355.47;;;26.27;30.75
67803;BME280;54601;51.378;-1.342;2023-06-26T01:53:01;100358.74;;;25.95;31.16
67803;BME280;54601;51.378;-1.342;2023-06-26T01:55:23;100359.04;;;25.87;31.34
67803;BME280;54601;51.378;-1.342;2023-06-26T01:57:45;100364.25;;;26.32;30.83
67803;BME280;54601;51.378;-1.342;2023-06-26T02:00:11;100370.80;;;26.06;31.06
67803;BME280;54601;51.378;-1.342;2023-06-26T02:02:35;100370.88;;;25.73;31.48
67803;BME280;54601;51.378;-1.342;2023-06-26T02:05:00;100375.51;;;25.71;31.50
67803;BME280;54601;51.378;-1.342;2023-06-26T02:07:25;100379.84;;;25.90;31.20
67803;BME280;54601;51.378;-1.342;2023-06-26T02:09:51;100377.58;;;25.64;31.51
67803;BME280;54601;51.378;-1.342;2023-06-26T02:12:16;100372.61;;;25.99;31.07
67803;BME280;54601;51.378;-1.342;2023-06-26T02:14:41;100373.34;;;26.36;31.30
67803;BME280;54601;51.378;-1.342;2023-06-26T02:17:07;100374.28;;;25.70;31.49
67803;BME280;54601;51.378;-1.342;2023-06-26T02:19:32;100377.15;;;25.60;31.61
67803;BME280;54601;51.378;-1.342;2023-06-26T02:21:57;100383.88;;;26.07;31.61
67803;BME280;54601;51.378;-1.342;2023-06-26T02:24:22;100387.44;;;25.39;31.76
67803;BME280;54601;51.378;-1.342;2023-06-26T02:26:48;100388.02;;;25.48;31.68
67803;BME280;54601;51.378;-1.342;2023-06-26T02:29:13;100385.21;;;25.32;31.85
67803;BME280;54601;51.378;-1.342;2023-06-26T02:31:38;100386.73;;;25.99;31.68
67803;BME280;54601;51.378;-1.342;2023-06-26T02:34:04;100390.41;;;25.86;31.81
67803;BME280;54601;51.378;-1.342;2023-06-26T02:36:29;100390.90;;;25.80;31.83
67803;BME280;54601;51.378;-1.342;2023-06-26T02:38:54;100395.30;;;25.51;31.66
67803;BME280;54601;51.378;-1.342;2023-06-26T02:41:19;100390.93;;;25.77;31.83
67803;BME280;54601;51.378;-1.342;2023-06-26T02:43:45;100389.11;;;25.48;31.87
67803;BME280;54601;51.378;-1.342;2023-06-26T02:46:10;100390.72;;;25.02;32.05
67803;BME280;54601;51.378;-1.342;2023-06-26T02:48:35;100388.73;;;25.50;31.81
67803;BME280;54601;51.378;-1.342;2023-06-26T02:51:01;100389.33;;;25.75;31.78
67803;BME280;54601;51.378;-1.342;2023-06-26T02:53:26;100388.67;;;25.38;31.89
67803;BME280;54601;51.378;-1.342;2023-06-26T02:55:51;100383.05;;;25.49;31.75
67803;BME280;54601;51.378;-1.342;2023-06-26T02:58:17;100387.33;;;25.21;31.99
67803;BME280;54601;51.378;-1.342;2023-06-26T03:00:42;100392.71;;;25.44;32.21
67803;BME280;54601;51.378;-1.342;2023-06-26T03:03:07;100395.61;;;25.55;31.75
67803;BME280;54601;51.378;-1.342;2023-06-26T03:05:33;100397.44;;;25.21;32.08
67803;BME280;54601;51.378;-1.342;2023-06-26T03:07:58;100398.09;;;25.55;32.06
67803;BME280;54601;51.378;-1.342;2023-06-26T03:10:23;100398.72;;;25.22;32.02
67803;BME280;54601;51.378;-1.342;2023-06-26T03:12:49;100399.89;;;24.79;32.23
67803;BME280;54601;51.378;-1.342;2023-06-26T03:15:14;100401.22;;;25.02;32.01
67803;BME280;54601;51.378;-1.342;2023-06-26T03:17:39;100399.28;;;25.17;32.09
67803;BME280;54601;51.378;-1.342;2023-06-26T03:20:06;100400.38;;;25.29;31.87
67803;BME280;54601;51.378;-1.342;2023-06-26T03:22:30;100402.30;;;24.75;32.28
67803;BME280;54601;51.378;-1.342;2023-06-26T03:24:55;100398.56;;;25.25;32.23
67803;BME280;54601;51.378;-1.342;2023-06-26T03:27:20;100403.55;;;24.67;32.31
67803;BME280;54601;51.378;-1.342;2023-06-26T03:29:46;100400.36;;;25.61;31.72
67803;BME280;54601;51.378;-1.342;2023-06-26T03:32:11;100402.16;;;25.31;32.19
67803;BME280;54601;51.378;-1.342;2023-06-26T03:34:36;100409.95;;;25.43;32.17
67803;BME280;54601;51.378;-1.342;2023-06-26T03:37:02;100404.41;;;25.63;31.70
67803;BME280;54601;51.378;-1.342;2023-06-26T03:39:27;100405.64;;;24.76;32.12
67803;BME280;54601;51.378;-1.342;2023-06-26T03:41:53;100411.08;;;24.91;31.92
67803;BME280;54601;51.378;-1.342;2023-06-26T03:44:18;100412.90;;;24.97;32.16
67803;BME280;54601;51.378;-1.342;2023-06-26T03:46:43;100417.41;;;25.05;32.09
67803;BME280;54601;51.378;-1.342;2023-06-26T03:49:08;100415.28;;;24.97;32.28
67803;BME280;54601;51.378;-1.342;2023-06-26T03:51:33;100423.30;;;25.11;32.29
67803;BME280;54601;51.378;-1.342;2023-06-26T03:53:59;100422.69;;;25.17;32.08
67803;BME280;54601;51.378;-1.342;2023-06-26T03:56:24;100424.93;;;25.10;32.27
67803;BME280;54601;51.378;-1.342;2023-06-26T03:58:49;100428.81;;;24.92;32.03
67803;BME280;54601;51.378;-1.342;2023-06-26T04:01:15;100427.38;;;25.32;31.91
67803;BME280;54601;51.378;-1.342;2023-06-26T04:03:40;100432.50;;;25.00;32.31
67803;BME280;54601;51.378;-1.342;2023-06-26T04:06:06;100441.09;;;25.06;32.31
67803;BME280;54601;51.378;-1.342;2023-06-26T04:08:31;100440.95;;;25.32;31.56
67803;BME280;54601;51.378;-1.342;2023-06-26T04:10:56;100444.78;;;24.73;32.02
67803;BME280;54601;51.378;-1.342;2023-06-26T04:13:21;100446.51;;;25.01;32.33
67803;BME280;54601;51.378;-1.342;2023-06-26T04:15:47;100441.42;;;24.80;32.17
67803;BME280;54601;51.378;-1.342;2023-06-26T04:18:12;100440.87;;;24.95;32.25
67803;BME280;54601;51.378;-1.342;2023-06-26T04:20:39;100447.51;;;25.12;32.19
67803;BME280;54601;51.378;-1.342;2023-06-26T04:23:02;100447.35;;;25.07;32.06
67803;BME280;54601;51.378;-1.342;2023-06-26T04:25:28;100449.02;;;24.85;31.97
67803;BME280;54601;51.378;-1.342;2023-06-26T04:27:53;100458.93;;;24.84;32.04
67803;BME280;54601;51.378;-1.342;2023-06-26T04:30:18;100461.38;;;24.90;32.30
67803;BME280;54601;51.378;-1.342;2023-06-26T04:32:44;100466.93;;;25.23;32.08
67803;BME280;54601;51.378;-1.342;2023-06-26T04:35:09;100478.43;;;25.27;31.73
67803;BME280;54601;51.378;-1.342;2023-06-26T04:37:34;100485.64;;;25.13;31.99
67803;BME280;54601;51.378;-1.342;2023-06-26T04:40:00;100484.35;;;25.01;32.05
67803;BME280;54601;51.378;-1.342;2023-06-26T04:42:25;100484.17;;;24.99;32.12
67803;BME280;54601;51.378;-1.342;2023-06-26T04:44:50;100480.94;;;24.92;32.16
67803;BME280;54601;51.378;-1.342;2023-06-26T04:47:16;100478.74;;;25.18;32.03
67803;BME280;54601;51.378;-1.342;2023-06-26T04:49:41;100476.82;;;24.78;32.29
67803;BME280;54601;51.378;-1.342;2023-06-26T04:52:06;100476.21;;;24.90;32.05
67803;BME280;54601;51.378;-1.342;2023-06-26T04:54:32;100478.95;;;25.12;31.95
67803;BME280;54601;51.378;-1.342;2023-06-26T04:56:57;100480.24;;;24.83;32.29
67803;BME280;54601;51.378;-1.342;2023-06-26T04:59:22;100481.85;;;24.88;32.28
67803;BME280;54601;51.378;-1.342;2023-06-26T05:01:48;100481.50;;;24.47;32.25
67803;BME280;54601;51.378;-1.342;2023-06-26T05:04:13;100490.46;;;25.08;32.07
67803;BME280;54601;51.378;-1.342;2023-06-26T05:06:38;100497.55;;;25.08;31.89
67803;BME280;54601;51.378;-1.342;2023-06-26T05:09:03;100499.84;;;24.63;32.08
67803;BME280;54601;51.378;-1.342;2023-06-26T05:11:29;100509.21;;;25.09;32.10
67803;BME280;54601;51.378;-1.342;2023-06-26T05:13:54;100509.31;;;24.97;31.92
67803;BME280;54601;51.378;-1.342;2023-06-26T05:16:19;100510.00;;;25.05;31.73
67803;BME280;54601;51.378;-1.342;2023-06-26T05:18:45;100513.14;;;24.79;32.29
67803;BME280;54601;51.378;-1.342;2023-06-26T05:21:10;100511.05;;;24.93;31.90
67803;BME280;54601;51.378;-1.342;2023-06-26T05:23:36;100512.18;;;24.75;32.15
67803;BME280;54601;51.378;-1.342;2023-06-26T05:26:02;100511.40;;;25.10;31.74
67803;BME280;54601;51.378;-1.342;2023-06-26T05:28:27;100513.28;;;25.10;31.66
67803;BME280;54601;51.378;-1.342;2023-06-26T05:30:52;100518.20;;;25.47;31.45
67803;BME280;54601;51.378;-1.342;2023-06-26T05:33:18;100516.94;;;25.01;31.79
67803;BME280;54601;51.378;-1.342;2023-06-26T05:35:43;100518.83;;;25.18;31.64
67803;BME280;54601;51.378;-1.342;2023-06-26T05:38:08;100521.62;;;25.27;31.43
67803;BME280;54601;51.378;-1.342;2023-06-26T05:40:33;100524.04;;;25.49;31.18
67803;BME280;54601;51.378;-1.342;2023-06-26T05:42:58;100521.17;;;25.04;31.85
67803;BME280;54601;51.378;-1.342;2023-06-26T05:45:23;100513.07;;;25.45;31.24
67803;BME280;54601;51.378;-1.342;2023-06-26T05:47:48;100510.96;;;25.07;31.59
67803;BME280;54601;51.378;-1.342;2023-06-26T05:50:15;100512.61;;;25.34;31.35
67803;BME280;54601;51.378;-1.342;2023-06-26T05:52:40;100516.18;;;25.21;31.46
67803;BME280;54601;51.378;-1.342;2023-06-26T05:55:05;100516.97;;;25.59;31.16
67803;BME280;54601;51.378;-1.342;2023-06-26T05:57:30;100519.30;;;25.56;31.17
67803;BME280;54601;51.378;-1.342;2023-06-26T05:59:56;100510.70;;;25.83;30.81
67803;BME280;54601;51.378;-1.342;2023-06-26T06:02:20;100519.65;;;25.85;30.73
67803;BME280;54601;51.378;-1.342;2023-06-26T06:04:46;100521.67;;;25.78;30.88
67803;BME280;54601;51.378;-1.342;2023-06-26T06:07:11;100528.68;;;25.72;30.98
67803;BME280;54601;51.378;-1.342;2023-06-26T06:09:36;100534.10;;;25.85;30.87
67803;BME280;54601;51.378;-1.342;2023-06-26T06:12:02;100536.14;;;25.79;30.84
67803;BME280;54601;51.378;-1.342;2023-06-26T06:14:27;100538.40;;;25.79;30.68
67803;BME280;54601;51.378;-1.342;2023-06-26T06:16:53;100544.85;;;26.27;30.45
67803;BME280;54601;51.378;-1.342;2023-06-26T06:19:18;100547.46;;;26.27;30.37
67803;BME280;54601;51.378;-1.342;2023-06-26T06:21:43;100548.98;;;26.25;30.50
67803;BME280;54601;51.378;-1.342;2023-06-26T06:24:08;100549.44;;;25.97;30.54
67803;BME280;54601;51.378;-1.342;2023-06-26T06:26:34;100543.77;;;26.41;30.31
67803;BME280;54601;51.378;-1.342;2023-06-26T06:28:59;100548.36;;;26.77;29.89
67803;BME280;54601;51.378;-1.342;2023-06-26T06:31:24;100553.57;;;27.29;29.08
67803;BME280;54601;51.378;-1.342;2023-06-26T06:33:50;100562.76;;;27.37;29.19
67803;BME280;54601;51.378;-1.342;2023-06-26T06:36:15;100565.25;;;27.37;28.99
67803;BME280;54601;51.378;-1.342;2023-06-26T06:38:43;100560.63;;;27.13;29.33
67803;BME280;54601;51.378;-1.342;2023-06-26T06:41:05;100567.58;;;27.25;29.19
67803;BME280;54601;51.378;-1.342;2023-06-26T06:43:31;100579.99;;;27.00;29.23
67803;BME280;54601;51.378;-1.342;2023-06-26T06:45:56;100585.48;;;27.39;29.09
67803;BME280;54601;51.378;-1.342;2023-06-26T06:48:21;100583.27;;;27.34;29.16
67803;BME280;54601;51.378;-1.342;2023-06-26T06:50:47;100579.89;;;26.99;29.04
67803;BME280;54601;51.378;-1.342;2023-06-26T06:53:12;100577.04;;;27.60;28.91
67803;BME280;54601;51.378;-1.342;2023-06-26T06:55:37;100587.58;;;27.66;28.87
67803;BME280;54601;51.378;-1.342;2023-06-26T06:58:03;100592.35;;;27.17;28.87
67803;BME280;54601;51.378;-1.342;2023-06-26T07:00:28;100606.54;;;27.72;28.83
67803;BME280;54601;51.378;-1.342;2023-06-26T07:02:53;100605.95;;;27.67;28.62
67803;BME280;54601;51.378;-1.342;2023-06-26T07:05:19;100605.67;;;27.07;29.25
67803;BME280;54601;51.378;-1.342;2023-06-26T07:07:44;100599.87;;;27.27;29.39
67803;BME280;54601;51.378;-1.342;2023-06-26T07:10:11;100605.31;;;27.26;29.58
67803;BME280;54601;51.378;-1.342;2023-06-26T07:12:35;100605.04;;;26.84;29.41
67803;BME280;54601;51.378;-1.342;2023-06-26T07:15:00;100604.52;;;27.06;29.33
67803;BME280;54601;51.378;-1.342;2023-06-26T07:17:25;100610.05;;;27.28;29.48
67803;BME280;54601;51.378;-1.342;2023-06-26T07:19:50;100607.20;;;27.06;29.33
67803;BME280;54601;51.378;-1.342;2023-06-26T07:22:16;100604.68;;;27.00;29.39
67803;BME280;54601;51.378;-1.342;2023-06-26T07:24:41;100607.28;;;27.26;29.40
67803;BME280;54601;51.378;-1.342;2023-06-26T07:27:06;100612.29;;;26.92;29.51
67803;BME280;54601;51.378;-1.342;2023-06-26T07:29:32;100622.04;;;26.71;29.46
67803;BME280;54601;51.378;-1.342;2023-06-26T07:31:57;100627.04;;;26.78;29.50
67803;BME280;54601;51.378;-1.342;2023-06-26T07:34:22;100628.54;;;26.81;29.40
67803;BME280;54601;51.378;-1.342;2023-06-26T07:36:48;100624.08;;;26.84;29.33
67803;BME280;54601;51.378;-1.342;2023-06-26T07:39:13;100632.88;;;26.94;29.34
67803;BME280;54601;51.378;-1.342;2023-06-26T07:41:38;100634.37;;;26.96;29.32
67803;BME280;54601;51.378;-1.342;2023-06-26T07:44:04;100632.94;;;27.54;29.23
67803;BME280;54601;51.378;-1.342;2023-06-26T07:46:29;100632.38;;;27.06;29.15
67803;BME280;54601;51.378;-1.342;2023-06-26T07:48:54;100630.50;;;27.05;29.13
67803;BME280;54601;51.378;-1.342;2023-06-26T07:51:19;100625.95;;;27.17;29.26
67803;BME280;54601;51.378;-1.342;2023-06-26T07:53:45;100631.48;;;27.27;29.20
67803;BME280;54601;51.378;-1.342;2023-06-26T07:56:10;100639.01;;;27.03;29.18
67803;BME280;54601;51.378;-1.342;2023-06-26T07:58:35;100660.55;;;27.31;29.19
67803;BME280;54601;51.378;-1.342;2023-06-26T08:01:01;100667.06;;;27.25;28.94
67803;BME280;54601;51.378;-1.342;2023-06-26T08:03:26;100660.34;;;27.14;29.15
67803;BME280;54601;51.378;-1.342;2023-06-26T08:05:51;100652.75;;;27.38;29.08
67803;BME280;54601;51.378;-1.342;2023-06-26T08:08:16;100652.25;;;27.23;28.98
67803;BME280;54601;51.378;-1.342;2023-06-26T08:10:42;100648.10;;;27.49;28.95
67803;BME280;54601;51.378;-1.342;2023-06-26T08:13:07;100646.89;;;27.33;28.89
67803;BME280;54601;51.378;-1.342;2023-06-26T08:15:32;100649.63;;;27.21;29.05
67803;BME280;54601;51.378;-1.342;2023-06-26T08:17:58;100651.44;;;27.14;29.03
67803;BME280;54601;51.378;-1.342;2023-06-26T08:20:23;100652.38;;;27.16;29.03
67803;BME280;54601;51.378;-1.342;2023-06-26T08:22:48;100660.30;;;27.16;29.07
67803;BME280;54601;51.378;-1.342;2023-06-26T08:25:14;100662.20;;;27.16;29.12
67803;BME280;54601;51.378;-1.342;2023-06-26T08:27:39;100657.08;;;27.23;29.03
67803;BME280;54601;51.378;-1.342;2023-06-26T08:30:05;100658.27;;;27.20;28.95
67803;BME280;54601;51.378;-1.342;2023-06-26T08:32:30;100652.13;;;27.21;28.95
67803;BME280;54601;51.378;-1.342;2023-06-26T08:34:55;100647.76;;;27.24;28.96
67803;BME280;54601;51.378;-1.342;2023-06-26T08:37:20;100649.13;;;27.30;28.95
67803;BME280;54601;51.378;-1.342;2023-06-26T08:39:45;100652.24;;;27.34;28.93
67803;BME280;54601;51.378;-1.342;2023-06-26T08:42:11;100650.96;;;27.31;28.91
67803;BME280;54601;51.378;-1.342;2023-06-26T08:44:36;100657.73;;;27.82;28.85
67803;BME280;54601;51.378;-1.342;2023-06-26T08:47:03;100662.25;;;27.32;28.88
67803;BME280;54601;51.378;-1.342;2023-06-26T08:49:33;100661.62;;;27.55;28.82
67803;BME280;54601;51.378;-1.342;2023-06-26T08:51:57;100666.62;;;27.31;28.88
67803;BME280;54601;51.378;-1.342;2023-06-26T08:54:21;100668.34;;;27.24;28.92
67803;BME280;54601;51.378;-1.342;2023-06-26T08:56:44;100666.33;;;27.60;29.11
67803;BME280;54601;51.378;-1.342;2023-06-26T08:59:08;100663.95;;;27.10;29.19
67803;BME280;54601;51.378;-1.342;2023-06-26T09:01:33;100667.34;;;27.54;29.09
67803;BME280;54601;51.378;-1.342;2023-06-26T09:03:59;100669.69;;;27.06;29.19
67803;BME280;54601;51.378;-1.342;2023-06-26T09:06:24;100666.90;;;27.08;29.14
67803;BME280;54601;51.378;-1.342;2023-06-26T09:08:49;100667.84;;;27.23;29.21
67803;BME280;54601;51.378;-1.342;2023-06-26T09:11:15;100669.96;;;27.27;29.16
67803;BME280;54601;51.378;-1.342;2023-06-26T09:13:40;100663.46;;;27.08;29.10
67803;BME280;54601;51.378;-1.342;2023-06-26T09:16:06;100662.50;;;27.27;29.15
67803;BME280;54601;51.378;-1.342;2023-06-26T09:18:32;100661.47;;;27.46;29.24
67803;BME280;54601;51.378;-1.342;2023-06-26T09:20:56;100670.22;;;27.02;29.18
67803;BME280;54601;51.378;-1.342;2023-06-26T09:23:21;100673.23;;;26.92;29.32
67803;BME280;54601;51.378;-1.342;2023-06-26T09:25:47;100675.96;;;26.92;29.30
67803;BME280;54601;51.378;-1.342;2023-06-26T09:28:12;100669.47;;;26.83;29.40
67803;BME280;54601;51.378;-1.342;2023-06-26T09:30:37;100666.55;;;26.84;29.39
67803;BME280;54601;51.378;-1.342;2023-06-26T09:35:27;100682.07;;;27.24;29.50
67803;BME280;54601;51.378;-1.342;2023-06-26T09:37:53;100676.88;;;26.81;29.40
67803;BME280;54601;51.378;-1.342;2023-06-26T09:40:18;100680.03;;;26.86;29.35
67803;BME280;54601;51.378;-1.342;2023-06-26T09:42:43;100685.76;;;26.72;29.32
67803;BME280;54601;51.378;-1.342;2023-06-26T09:45:17;100684.86;;;26.78;29.50
67803;BME280;54601;51.378;-1.342;2023-06-26T09:47:34;100692.39;;;27.22;29.43
67803;BME280;54601;51.378;-1.342;2023-06-26T09:49:59;100688.06;;;26.73;29.23
67803;BME280;54601;51.378;-1.342;2023-06-26T09:52:27;100696.35;;;27.00;29.27
67803;BME280;54601;51.378;-1.342;2023-06-26T09:54:50;100699.73;;;26.99;29.40
67803;BME280;54601;51.378;-1.342;2023-06-26T09:57:16;100696.79;;;27.06;29.25
67803;BME280;54601;51.378;-1.342;2023-06-26T09:59:42;100699.55;;;26.94;29.13
67803;BME280;54601;51.378;-1.342;2023-06-26T10:02:06;100699.78;;;26.99;29.14
67803;BME280;54601;51.378;-1.342;2023-06-26T10:04:31;100703.07;;;27.47;29.05
67803;BME280;54601;51.378;-1.342;2023-06-26T10:06:58;100698.58;;;27.50;28.94
67803;BME280;54601;51.378;-1.342;2023-06-26T10:09:23;100696.21;;;27.32;28.94
67803;BME280;54601;51.378;-1.342;2023-06-26T10:11:53;100704.03;;;26.90;29.11
67803;BME280;54601;51.378;-1.342;2023-06-26T10:14:13;100712.05;;;26.97;29.02
67803;BME280;54601;51.378;-1.342;2023-06-26T10:16:39;100718.58;;;27.00;28.86
67803;BME280;54601;51.378;-1.342;2023-06-26T10:19:05;100712.29;;;26.85;29.13
67803;BME280;54601;51.378;-1.342;2023-06-26T10:21:29;100718.71;;;27.00;29.09
67803;BME280;54601;51.378;-1.342;2023-06-26T10:23:54;100721.73;;;26.77;29.18
67803;BME280;54601;51.378;-1.342;2023-06-26T10:26:20;100720.25;;;26.81;28.96
67803;BME280;54601;51.378;-1.342;2023-06-26T10:28:44;100721.76;;;27.12;29.04
67803;BME280;54601;51.378;-1.342;2023-06-26T10:31:10;100726.49;;;26.97;28.76
67803;BME280;54601;51.378;-1.342;2023-06-26T10:33:35;100729.56;;;27.05;28.86
67803;BME280;54601;51.378;-1.342;2023-06-26T10:40:51;100739.98;;;27.09;28.78
67803;BME280;54601;51.378;-1.342;2023-06-26T10:43:16;100741.00;;;27.18;28.84
67803;BME280;54601;51.378;-1.342;2023-06-26T10:45:45;100739.38;;;26.95;28.86
67803;BME280;54601;51.378;-1.342;2023-06-26T10:48:06;100735.42;;;26.94;28.68
67803;BME280;54601;51.378;-1.342;2023-06-26T10:50:33;100735.42;;;27.09;28.82
67803;BME280;54601;51.378;-1.342;2023-06-26T10:53:08;100731.85;;;26.89;28.85
67803;BME280;54601;51.378;-1.342;2023-06-26T10:55:27;100733.01;;;26.98;28.73
67803;BME280;54601;51.378;-1.342;2023-06-26T10:57:48;100734.00;;;27.48;28.72
67803;BME280;54601;51.378;-1.342;2023-06-26T11:00:15;100734.25;;;27.00;28.58
67803;BME280;54601;51.378;-1.342;2023-06-26T11:05:06;100735.18;;;26.98;28.72
67803;BME280;54601;51.378;-1.342;2023-06-26T11:07:29;100734.53;;;26.98;28.54
67803;BME280;54601;51.378;-1.342;2023-06-26T11:09:56;100731.63;;;27.33;28.44
67803;BME280;54601;51.378;-1.342;2023-06-26T11:14:45;100735.23;;;27.11;28.46
67803;BME280;54601;51.378;-1.342;2023-06-26T11:17:10;100736.24;;;27.13;28.34
67803;BME280;54601;51.378;-1.342;2023-06-26T11:19:36;100740.52;;;27.05;28.41
67803;BME280;54601;51.378;-1.342;2023-06-26T11:22:05;100742.46;;;27.01;28.53
67803;BME280;54601;51.378;-1.342;2023-06-26T11:24:26;100749.40;;;27.07;28.43
67803;BME280;54601;51.378;-1.342;2023-06-26T11:26:51;100749.56;;;27.07;28.43
67803;BME280;54601;51.378;-1.342;2023-06-26T11:29:16;100751.42;;;27.14;28.32
67803;BME280;54601;51.378;-1.342;2023-06-26T11:31:42;100757.77;;;27.15;28.26
67803;BME280;54601;51.378;-1.342;2023-06-26T11:34:08;100758.20;;;27.11;28.43
67803;BME280;54601;51.378;-1.342;2023-06-26T11:36:33;100754.31;;;27.27;28.60
67803;BME280;54601;51.378;-1.342;2023-06-26T11:38:59;100756.66;;;27.64;28.43
67803;BME280;54601;51.378;-1.342;2023-06-26T11:41:24;100756.01;;;27.22;28.33
67803;BME280;54601;51.378;-1.342;2023-06-26T11:43:49;100758.77;;;27.17;28.26
67803;BME280;54601;51.378;-1.342;2023-06-26T11:46:16;100752.92;;;27.33;28.44
67803;BME280;54601;51.378;-1.342;2023-06-26T11:48:39;100758.58;;;27.57;28.38
67803;BME280;54601;51.378;-1.342;2023-06-26T11:51:04;100756.03;;;27.67;28.36
67803;BME280;54601;51.378;-1.342;2023-06-26T11:53:30;100749.36;;;27.15;28.28
67803;BME280;54601;51.378;-1.342;2023-06-26T11:55:55;100757.34;;;27.19;28.27
67803;BME280;54601;51.378;-1.342;2023-06-26T11:58:20;100758.35;;;27.42;28.36
67803;BME280;54601;51.378;-1.342;2023-06-26T12:00:48;100759.34;;;27.15;28.30
67803;BME280;54601;51.378;-1.342;2023-06-26T12:03:11;100764.66;;;27.15;28.21
67803;BME280;54601;51.378;-1.342;2023-06-26T12:05:36;100767.80;;;27.16;28.31
67803;BME280;54601;51.378;-1.342;2023-06-26T12:08:02;100768.24;;;27.37;28.30
67803;BME280;54601;51.378;-1.342;2023-06-26T12:10:27;100762.25;;;27.17;28.18
67803;BME280;54601;51.378;-1.342;2023-06-26T12:12:52;100764.25;;;27.14;28.30
67803;BME280;54601;51.378;-1.342;2023-06-26T12:15:20;100760.44;;;27.37;28.35
67803;BME280;54601;51.378;-1.342;2023-06-26T12:17:43;100768.11;;;27.22;28.13
67803;BME280;54601;51.378;-1.342;2023-06-26T12:22:35;100762.88;;;27.03;28.33
67803;BME280;54601;51.378;-1.342;2023-06-26T12:24:58;100762.13;;;27.10;28.27
67803;BME280;54601;51.378;-1.342;2023-06-26T12:27:24;100756.78;;;27.05;28.37
67803;BME280;54601;51.378;-1.342;2023-06-26T12:29:51;100755.06;;;27.06;28.29
67803;BME280;54601;51.378;-1.342;2023-06-26T12:32:14;100752.98;;;27.36;28.27
67803;BME280;54601;51.378;-1.342;2023-06-26T12:34:40;100751.31;;;27.32;28.25
67803;BME280;54601;51.378;-1.342;2023-06-26T12:37:07;100750.61;;;27.27;28.27
67803;BME280;54601;51.378;-1.342;2023-06-26T12:42:00;100748.33;;;27.32;28.14
67803;BME280;54601;51.378;-1.342;2023-06-26T12:44:23;100743.62;;;27.05;28.18
67803;BME280;54601;51.378;-1.342;2023-06-26T12:46:47;100740.96;;;27.02;28.25